METAR Data
IDs: Format: Raw Decoded Include TAF

Data at: 0146 UTC 01 Mar 2021

KJVL 010045Z 30011KT 10SM SCT150 03/00 A2987